Pea Ridge, AR

4:41 PM CST on November 23, 2014 (GMT -0600)
Avoca | Change Station
CLOSE
Current Station
Personal Weather Station
Location: Rogers, AR
Elevation: 1348 ft
Nearby Weather Stations

Elev 1348 ft 36.41 °N, 94.07 °W | Updated 7 minutes ago

Overcast
Overcast
61.9 °F
Feels Like 61.9 °F
N
2.7
Wind Variable Wind from ESE

Today
High -- | Low -- °F
--% Chance of Precip.
Yesterday
High -- | Low -- °F
Precip. -- in
7:02 AM 5:03 PM
New Moon, 2% visible
Pressure 29.31 in
Visibility 10.0 miles
Clouds Scattered Clouds 2700 ft
Mostly Cloudy 3200 ft
Overcast 6000 ft
Dew Point 56 °F
Humidity 81%
Rainfall 0.00 in
Snow Depth Not available.
UV 0 out of 12
Pollen .40 out of 12
Air Quality Not available.
Flu Activity Not available.
SPECI KROG 232200Z 22005KT 10SM SCT027 BKN032 OVC060 18/12 A2931 RMK AO2

More Conditions Fewer Conditions

Pressure 29.31 in
Visibility 10.0 miles
Clouds Scattered Clouds 2700 ft
Mostly Cloudy 3200 ft
Overcast 6000 ft
Dew Point 56 °F
Humidity 81%
Rainfall 0.00 in
Snow Depth Not available.
UV 0 out of 12
Pollen .40 out of 12
Air Quality Not available.
Flu Activity Not available.
SPECI KROG 232200Z 22005KT 10SM SCT027 BKN032 OVC060 18/12 A2931 RMK AO2

More Conditions Fewer Conditions

Nowcast | as of 3:45 PM CST on November 23, 2014

At 3:45 PM... National Weather Service radars indicate rain showers developing ahead of a cold front across northeast Oklahoma. This activity was generally located east of a line from Bartlesville... to Tulsa... to Stillwell... and was moving to the northeast at about 35 mph. Through 5:30 PM... as a cold front rapidly approaches the area... scattered showers and possibly an isolated thunderstorm will be possible across northeast Oklahoma and northwest Arkansas. These showers will be brief as they are moving quickly. Shower activity should end with passage of the front.

×

10-Day Weather Forecast

Almanac

Astronomy

Nov. 23, 2014 Rise Set
Actual Time
Civil Twilight
Nautical Twilight
Astronomical Twilight
Moon
Length of Visible Light
Length of Day
Tomorrow will be .
, % of the Moon is Illuminated

Today's Extremes

State Highs State Lows

Community

WunderPhotos

Upload Photos

1,773,187 photos uploaded!

WunderBlogs® & News

Nearby

Air Quality

  Air Quality AQ Index Pollutant
Not available.

Snow Depth

Station Depth Elevation

Earthquake Activity

City Distance Mag. Time & Date
Minimum magnitude displayed is 2.5.

Coastal Water Temperatures

Place Temperature

Nearby Weather Stations